Time;durP1;ratioP1;P1;durP2;ratioP2;P2;SDS_P1;SDS_P2;PMS_P1;PMS_P2;Temp;Humidity;BMP_temperature;BMP_pressure;BME280_temperature;BME280_humidity;BME280_pressure;Samples;Min_cycle;Max_cycle;Signal;HPM_P1;HPM_P2
2023/02/13 00:01:25;;;;;;;6.20;4.20;;;;;;;-2.06;73.12;101128.87;109095;1257;60449;-69
2023/02/13 00:03:59;;;;;;;6.00;3.50;;;;;;;-2.03;72.71;101130.23;109134;1257;58584;-67
2023/02/13 00:06:27;;;;;;;7.40;4.00;;;;;;;-2.03;72.90;101125.66;109164;1256;75045;-67
2023/02/13 00:08:55;;;;;;;7.90;4.80;;;;;;;-2.04;72.80;101128.17;109226;1256;68231;-68
2023/02/13 00:11:28;;;;;;;6.60;4.50;;;;;;;-2.05;72.70;101123.15;109197;1256;72296;-69
2023/02/13 00:13:57;;;;;;;5.20;3.60;;;;;;;-2.07;72.71;101126.34;109130;1257;60359;-68
2023/02/13 00:16:25;;;;;;;4.90;3.30;;;;;;;-2.08;72.58;101118.16;109173;1256;58159;-68
2023/02/13 00:19:01;;;;;;;6.10;3.70;;;;;;;-2.10;72.39;101109.75;109169;1257;71888;-69
2023/02/13 00:21:34;;;;;;;4.70;3.70;;;;;;;-2.12;72.62;101110.45;109092;1257;67323;-67
2023/02/13 00:24:04;;;;;;;4.70;3.80;;;;;;;-2.14;72.51;101108.85;109099;1256;72125;-69
2023/02/13 00:26:32;;;;;;;8.60;3.90;;;;;;;-2.15;72.69;101107.05;108418;1256;1002452;-67
2023/02/13 00:29:01;;;;;;;5.60;3.70;;;;;;;-2.19;72.46;101105.59;109189;1256;60269;-69
2023/02/13 00:31:29;;;;;;;7.30;4.20;;;;;;;-2.21;72.79;101105.95;109133;1257;71419;-68
2023/02/13 00:33:57;;;;;;;7.80;4.00;;;;;;;-2.23;72.57;101103.84;109196;1256;67645;-69
2023/02/13 00:36:27;;;;;;;7.20;4.50;;;;;;;-2.25;72.73;101101.05;109118;1256;71072;-68
2023/02/13 00:38:55;;;;;;;5.60;4.00;;;;;;;-2.26;72.61;101100.72;109174;1256;60834;-69
2023/02/13 00:41:24;;;;;;;6.00;4.20;;;;;;;-2.24;72.61;101097.78;107645;1257;1002272;-69
2023/02/13 00:43:52;;;;;;;6.80;3.40;;;;;;;-2.21;72.85;101097.52;109111;1257;73515;-69
2023/02/13 00:46:20;;;;;;;4.70;3.60;;;;;;;-2.19;73.01;101092.56;109154;1256;66794;-68
2023/02/13 00:48:48;;;;;;;4.30;3.10;;;;;;;-2.16;72.72;101084.67;109185;1256;71716;-67
2023/02/13 00:51:16;;;;;;;4.40;3.40;;;;;;;-2.17;73.03;101087.86;108332;1256;1002708;-68
2023/02/13 00:53:45;;;;;;;10.10;4.20;;;;;;;-2.18;72.94;101084.46;109185;1256;58913;-70
2023/02/13 00:56:15;;;;;;;4.90;3.90;;;;;;;-2.22;72.60;101071.56;109105;1257;73275;-69
2023/02/13 00:58:46;;;;;;;7.90;4.00;;;;;;;-2.24;73.03;101068.79;109207;1256;66813;-69
2023/02/13 01:01:16;;;;;;;5.90;3.80;;;;;;;-2.26;72.97;101070.70;108404;1256;1015463;-70
2023/02/13 01:03:44;;;;;;;5.80;4.00;;;;;;;-2.29;72.92;101072.54;109156;1256;61299;-68
2023/02/13 01:06:12;;;;;;;4.40;4.00;;;;;;;-2.32;73.08;101068.44;109173;1256;59477;-70
2023/02/13 01:08:41;;;;;;;5.00;4.10;;;;;;;-2.35;73.21;101067.31;109157;1256;73744;-69
2023/02/13 01:11:09;;;;;;;6.30;3.10;;;;;;;-2.38;73.14;101071.09;109123;1256;66340;-69
2023/02/13 01:13:37;;;;;;;7.50;3.80;;;;;;;-2.41;73.92;101070.77;109117;1256;72866;-70
2023/02/13 01:16:07;;;;;;;5.70;4.00;;;;;;;-2.42;73.57;101062.32;109088;1256;58435;-69
2023/02/13 01:18:37;;;;;;;4.00;3.20;;;;;;;-2.44;73.67;101059.15;109145;1256;59919;-68
2023/02/13 01:21:07;;;;;;;11.40;4.70;;;;;;;-2.45;73.96;101058.75;109123;1256;74151;-67
2023/02/13 01:23:42;;;;;;;7.40;3.30;;;;;;;-2.44;74.03;101056.30;109150;1256;67065;-70
2023/02/13 01:26:18;;;;;;;5.30;3.10;;;;;;;-2.41;74.27;101054.12;109142;1256;71710;-70
2023/02/13 01:28:46;;;;;;;8.70;4.10;;;;;;;-2.37;74.04;101047.95;109124;1256;59265;-70
2023/02/13 01:31:16;;;;;;;6.80;3.30;;;;;;;-2.32;74.04;101045.83;109118;1256;60911;-69
2023/02/13 01:33:46;;;;;;;5.10;3.60;;;;;;;-2.30;74.22;101044.91;109159;1256;71964;-69
2023/02/13 01:36:16;;;;;;;6.40;4.00;;;;;;;-2.31;74.11;101041.95;109163;1256;65837;-71
2023/02/13 01:38:44;;;;;;;4.00;3.50;;;;;;;-2.31;74.10;101045.14;109064;1256;73861;-70
2023/02/13 01:41:14;;;;;;;6.40;3.80;;;;;;;-2.33;74.09;101044.59;109131;1256;59677;-70
2023/02/13 01:43:59;;;;;;;6.20;3.90;;;;;;;-2.35;73.91;101043.94;109121;1257;58595;-69
2023/02/13 01:46:36;;;;;;;3.70;3.40;;;;;;;-2.38;74.11;101045.77;109099;1257;73502;-68
2023/02/13 01:49:20;;;;;;;4.80;3.50;;;;;;;-2.40;74.19;101042.12;109022;1257;69017;-69
2023/02/13 01:51:48;;;;;;;7.70;5.80;;;;;;;-2.44;74.48;101037.55;108324;1257;1002279;-68
2023/02/13 01:54:21;;;;;;;4.70;3.50;;;;;;;-2.47;74.55;101040.64;108990;1257;61235;-68
2023/02/13 01:56:54;;;;;;;4.80;3.40;;;;;;;-2.48;74.32;101038.64;109099;1257;58161;-68
2023/02/13 01:59:28;;;;;;;5.10;4.60;;;;;;;-2.50;74.68;101033.85;109015;1257;73817;-67
2023/02/13 02:01:57;;;;;;;5.30;3.90;;;;;;;-2.51;74.78;101033.39;109059;1258;66365;-68
2023/02/13 02:04:30;;;;;;;6.30;3.50;;;;;;;-2.49;74.95;101023.09;108979;1257;71057;-69
2023/02/13 02:07:02;;;;;;;;;;;;;;;-2.47;75.41;101025.70;109071;1257;58690;-69
2023/02/13 02:09:37;;;;;;;7.10;4.70;;;;;;;-2.44;74.88;101017.37;109099;1257;59621;-68
2023/02/13 02:12:28;;;;;;;9.80;3.60;;;;;;;-2.41;74.92;101013.04;109075;1257;75044;-69
2023/02/13 02:14:59;;;;;;;7.70;4.00;;;;;;;-2.38;74.89;101016.42;109018;1257;65673;-69
2023/02/13 02:17:30;;;;;;;5.30;3.90;;;;;;;-2.36;74.77;101014.16;108988;1257;71002;-70
2023/02/13 02:19:59;;;;;;;5.70;3.40;;;;;;;-2.35;75.08;101017.98;109118;1257;58125;-69
2023/02/13 02:22:45;;;;;;;4.50;3.10;;;;;;;-2.36;75.14;101018.07;109099;1257;59478;-69
2023/02/13 02:25:16;;;;;;;5.50;4.10;;;;;;;-2.38;74.92;101012.73;109085;1257;73456;-68
2023/02/13 02:28:00;;;;;;;8.30;3.40;;;;;;;-2.39;75.06;101018.84;109089;1257;66555;-68
2023/02/13 02:31:07;;;;;;;6.30;4.00;;;;;;;-2.41;75.34;101021.66;109072;1257;72374;-69
2023/02/13 02:33:52;;;;;;;4.70;3.50;;;;;;;-2.43;75.11;101018.11;109055;1257;59658;-69
2023/02/13 02:36:48;;;;;;;5.20;3.50;;;;;;;-2.44;75.37;101013.52;109092;1257;59499;-70
2023/02/13 02:39:17;;;;;;;5.50;3.40;;;;;;;-2.45;75.65;101008.62;109093;1257;73248;-69
2023/02/13 02:41:57;;;;;;;5.10;4.60;;;;;;;-2.43;76.01;101010.25;109041;1259;65993;-69
2023/02/13 02:44:39;;;;;;;4.20;3.10;;;;;;;-2.39;75.84;101006.67;108909;1258;71443;-70
2023/02/13 02:50:42;;;;;;;4.80;3.40;;;;;;;-2.26;75.99;101005.70;108172;1259;1002186;-71
2023/02/13 02:53:22;;;;;;;7.90;4.00;;;;;;;-2.22;75.90;101005.20;109077;1259;74523;-69
2023/02/13 02:55:57;;;;;;;5.60;3.00;;;;;;;-2.20;75.91;101005.52;109065;1259;67344;-69
2023/02/13 03:07:16;;;;;;;7.70;4.40;;;;;;;-2.19;76.36;100994.89;109065;1259;74357;-69
2023/02/13 03:22:17;;;;;;;7.50;4.70;;;;;;;-2.18;77.18;100989.37;109015;1259;59596;-70
2023/02/13 03:24:32;;;;;;;5.10;3.90;;;;;;;-2.00;77.25;100986.16;109005;1259;68281;-69
2023/02/13 03:27:09;;;;;;;5.80;4.90;;;;;;;-1.96;77.12;100984.54;108972;1258;71887;-69
2023/02/13 03:30:07;;;;;;;5.70;4.20;;;;;;;-1.92;77.21;100985.80;109031;1259;59561;-69
2023/02/13 03:32:40;;;;;;;8.70;4.70;;;;;;;-1.90;77.21;100979.77;108928;1263;58110;-70
2023/02/13 03:38:45;;;;;;;6.70;4.60;;;;;;;-1.88;77.68;100964.89;108939;1259;65974;-70
2023/02/13 03:41:26;;;;;;;10.50;4.70;;;;;;;-1.89;77.56;100958.43;109029;1259;72937;-69
2023/02/13 03:44:10;;;;;;;8.00;4.90;;;;;;;-1.89;77.42;100955.13;108965;1260;60209;-70
2023/02/13 03:46:41;;;;;;;5.40;4.10;;;;;;;-1.90;77.73;100951.66;108975;1259;59193;-69
2023/02/13 03:52:12;;;;;;;5.80;4.10;;;;;;;-1.89;77.82;100951.56;108967;1259;66108;-70
2023/02/13 04:00:50;;;;;;;10.10;4.90;;;;;;;-1.74;78.23;100937.95;108972;1259;58861;-69
2023/02/13 04:03:36;;;;;;;8.50;4.90;;;;;;;-1.64;77.83;100937.19;108964;1259;74783;-68
2023/02/13 04:06:10;;;;;;;12.20;6.90;;;;;;;-1.55;78.00;100927.56;108889;1259;67109;-69
2023/02/13 04:08:38;;;;;;;9.80;6.60;;;;;;;-1.50;77.79;100929.73;108913;1259;72723;-69
2023/02/13 04:11:14;;;;;;;12.80;5.40;;;;;;;-1.46;77.63;100925.67;108996;1259;60826;-69
2023/02/13 04:14:17;;;;;;;8.70;4.80;;;;;;;-1.45;77.57;100929.83;108918;1259;58585;-69
2023/02/13 04:16:51;;;;;;;8.40;4.80;;;;;;;-1.51;77.62;100922.20;108762;1259;72236;-70
2023/02/13 04:19:19;;;;;;;;;;;;;;;-1.54;77.47;100916.24;108982;1259;70058;-69
2023/02/13 04:21:49;;;;;;;7.20;5.10;;;;;;;-1.58;78.04;100917.50;108957;1259;70766;-70
2023/02/13 04:24:18;;;;;;;8.40;4.60;;;;;;;-1.62;78.07;100921.66;109023;1259;58249;-69
2023/02/13 04:26:46;;;;;;;13.50;4.90;;;;;;;-1.63;78.33;100919.53;109024;1259;58142;-68
2023/02/13 04:29:14;;;;;;;8.80;4.90;;;;;;;-1.63;78.06;100915.88;109033;1259;71773;-70
2023/02/13 04:31:42;;;;;;;7.10;4.70;;;;;;;-1.64;78.16;100918.39;108263;1259;1002399;-69
2023/02/13 04:34:10;;;;;;;5.90;4.10;;;;;;;-1.64;78.30;100917.68;108980;1259;71984;-69
2023/02/13 04:36:40;;;;;;;13.00;5.70;;;;;;;-1.63;78.66;100915.84;108962;1260;59392;-68
2023/02/13 04:39:09;;;;;;;9.60;4.60;;;;;;;-1.60;78.69;100908.11;109030;1259;59407;-68
2023/02/13 04:41:38;;;;;;;9.10;5.90;;;;;;;-1.55;78.88;100902.55;109009;1259;75263;-69
2023/02/13 04:44:07;;;;;;;8.50;4.90;;;;;;;-1.50;78.85;100903.70;109012;1259;66309;-69
2023/02/13 04:46:36;;;;;;;8.10;4.30;;;;;;;-1.47;78.59;100906.03;108992;1259;73640;-69
2023/02/13 04:49:05;;;;;;;9.70;6.50;;;;;;;-1.42;78.52;100904.36;108995;1259;58148;-69
2023/02/13 04:51:37;;;;;;;10.60;4.80;;;;;;;-1.39;78.45;100908.23;108972;1259;59190;-73
2023/02/13 04:54:07;;;;;;;13.80;8.10;;;;;;;-1.37;78.50;100911.45;109030;1259;71816;-69
2023/02/13 04:56:36;;;;;;;10.10;5.60;;;;;;;-1.36;78.31;100913.77;108261;1259;1002057;-69
2023/02/13 04:59:05;;;;;;;13.50;5.70;;;;;;;-1.36;78.38;100914.34;108987;1259;72328;-69
2023/02/13 05:01:33;;;;;;;9.30;5.30;;;;;;;-1.37;78.25;100910.56;108955;1259;59239;-69
2023/02/13 05:04:03;;;;;;;9.20;6.20;;;;;;;-1.37;78.44;100907.56;108974;1259;59302;-69
2023/02/13 05:06:31;;;;;;;8.50;4.80;;;;;;;-1.37;78.30;100906.15;108970;1259;72621;-69
2023/02/13 05:09:01;;;;;;;8.80;5.00;;;;;;;-1.37;78.59;100906.00;109006;1259;67286;-69
2023/02/13 05:11:29;;;;;;;9.90;6.00;;;;;;;-1.37;78.32;100906.17;108991;1259;70257;-69
2023/02/13 05:13:59;;;;;;;11.10;5.80;;;;;;;-1.36;78.66;100908.73;108938;1259;59899;-69
2023/02/13 05:16:27;;;;;;;10.00;6.20;;;;;;;-1.33;78.86;100911.77;109023;1259;61210;-68
2023/02/13 05:18:58;;;;;;;9.90;6.30;;;;;;;-1.28;78.87;100912.20;109004;1259;71819;-67
2023/02/13 05:24:14;;;;;;;9.80;5.50;;;;;;;-1.13;78.91;100910.23;108990;1259;72649;-66
2023/02/13 05:26:43;;;;;;;10.30;6.40;;;;;;;-1.05;78.81;100914.60;108928;1259;59940;-67
2023/02/13 05:29:17;;;;;;;9.00;5.90;;;;;;;-0.99;78.81;100915.59;108957;1259;59559;-67
2023/02/13 05:31:47;;;;;;;6.70;5.20;;;;;;;-0.96;78.70;100909.08;109013;1259;72940;-68
2023/02/13 05:34:15;;;;;;;12.00;6.30;;;;;;;-0.93;78.64;100904.04;108961;1259;68385;-70
2023/02/13 05:36:44;;;;;;;10.10;6.00;;;;;;;-0.91;78.52;100901.58;109013;1259;72843;-69
2023/02/13 05:39:14;;;;;;;11.10;6.90;;;;;;;-0.88;78.56;100907.63;108957;1259;58508;-68
2023/02/13 05:41:48;;;;;;;7.50;5.40;;;;;;;-0.85;78.61;100911.95;108910;1260;58834;-69
2023/02/13 05:44:20;;;;;;;7.60;5.90;;;;;;;-0.84;78.49;100910.61;108962;1260;73723;-68
2023/02/13 05:46:52;;;;;;;7.90;5.90;;;;;;;-0.84;78.45;100908.30;108998;1260;67707;-67
2023/02/13 05:49:24;;;;;;;11.20;6.20;;;;;;;-0.83;78.64;100905.45;108950;1260;71375;-67
2023/02/13 05:51:56;;;;;;;8.90;6.00;;;;;;;-0.83;78.67;100911.11;108954;1260;60682;-68
2023/02/13 05:54:27;;;;;;;10.80;5.40;;;;;;;-0.82;78.82;100905.84;108949;1260;58745;-71
2023/02/13 05:56:59;;;;;;;6.10;4.60;;;;;;;-0.79;79.05;100908.74;108927;1260;72589;-72
2023/02/13 05:59:32;;;;;;;9.10;5.10;;;;;;;-0.74;79.13;100910.19;108922;1260;66687;-68
2023/02/13 06:02:03;;;;;;;9.70;5.50;;;;;;;-0.68;79.02;100905.39;108947;1260;72908;-69
2023/02/13 06:04:34;;;;;;;7.80;5.50;;;;;;;-0.62;78.98;100905.34;108957;1260;58390;-68
2023/02/13 06:07:06;;;;;;;9.30;5.50;;;;;;;-0.58;78.78;100903.63;108910;1260;60476;-69
2023/02/13 06:09:37;;;;;;;9.00;5.40;;;;;;;-0.54;78.72;100903.84;107455;1260;1002710;-70
2023/02/13 06:12:10;;;;;;;6.50;5.80;;;;;;;-0.52;78.62;100897.80;108995;1260;65376;-69
2023/02/13 06:14:41;;;;;;;7.50;5.10;;;;;;;-0.53;78.62;100901.56;108931;1260;72567;-68
2023/02/13 06:17:12;;;;;;;8.90;5.90;;;;;;;-0.54;78.57;100897.44;108937;1260;59737;-68
2023/02/13 06:19:44;;;;;;;7.50;5.80;;;;;;;-0.55;78.54;100903.17;108972;1260;59035;-67
2023/02/13 06:22:15;;;;;;;7.20;5.40;;;;;;;-0.55;78.83;100887.15;108888;1260;74940;-68
2023/02/13 06:24:48;;;;;;;10.30;5.60;;;;;;;-0.53;78.93;100875.05;108158;1260;1003151;-70
2023/02/13 06:27:20;;;;;;;10.90;7.30;;;;;;;-0.51;79.01;100879.02;108946;1260;71394;-70
2023/02/13 06:29:51;;;;;;;10.80;5.50;;;;;;;-0.46;78.99;100874.52;105924;1260;1003069;-69
2023/02/13 06:32:23;;;;;;;9.60;6.00;;;;;;;-0.41;79.03;100866.64;108946;1260;59297;-72
2023/02/13 06:34:55;;;;;;;10.60;6.30;;;;;;;-0.35;78.93;100873.45;108948;1262;73875;-70
2023/02/13 06:37:26;;;;;;;8.10;5.10;;;;;;;-0.32;78.88;100869.80;108983;1260;69222;-68
2023/02/13 06:48:10;;;;;;;9.80;6.90;;;;;;;-0.27;78.81;100867.54;102270;1292;600306;-68
2023/02/13 06:50:39;;;;;;;8.20;6.30;;;;;;;-0.28;78.90;100866.23;105008;1267;62155;-69
2023/02/13 06:53:07;;;;;;;11.60;7.10;;;;;;;-0.27;79.04;100859.23;104891;1266;61703;-69
2023/02/13 06:55:38;;;;;;;12.30;6.70;;;;;;;-0.25;79.02;100862.00;105222;1265;73053;-70
2023/02/13 06:58:06;;;;;;;11.00;7.50;;;;;;;-0.23;79.09;100853.52;105409;1260;67264;-71
2023/02/13 07:00:36;;;;;;;7.40;6.30;;;;;;;-0.21;79.03;100854.24;105579;1259;73229;-70
2023/02/13 07:03:05;;;;;;;8.00;6.00;;;;;;;-0.20;78.99;100855.22;104093;1260;1003588;-71
2023/02/13 07:05:34;;;;;;;8.80;6.00;;;;;;;-0.20;79.01;100847.25;105808;1257;60212;-71
2023/02/13 07:08:02;;;;;;;10.50;5.80;;;;;;;-0.20;79.04;100846.05;105738;1258;72235;-71
2023/02/13 07:10:39;;;;;;;9.20;6.90;;;;;;;-0.21;79.29;100845.55;105896;1260;69308;-71
2023/02/13 07:13:10;;;;;;;9.30;6.40;;;;;;;-0.22;79.24;100841.30;105748;1260;73543;-71
2023/02/13 07:15:38;;;;;;;9.60;6.40;;;;;;;-0.25;79.33;100829.04;105662;1257;61030;-69
2023/02/13 07:18:06;;;;;;;8.50;6.00;;;;;;;-0.24;79.55;100828.31;105818;1256;62571;-72
2023/02/13 07:20:34;;;;;;;8.60;6.20;;;;;;;-0.23;79.72;100822.85;105624;1256;72635;-77
2023/02/13 07:23:04;;;;;;;11.60;7.00;;;;;;;-0.20;79.85;100829.41;105693;1260;68665;-70
2023/02/13 07:25:33;;;;;;;8.70;7.80;;;;;;;-0.17;79.65;100825.76;103922;1257;1003017;-70
2023/02/13 07:28:02;;;;;;;9.40;6.90;;;;;;;-0.14;79.71;100819.10;105270;1262;60083;-70
2023/02/13 07:30:32;;;;;;;9.80;6.50;;;;;;;-0.11;79.76;100813.91;105217;1256;60373;-69
2023/02/13 07:33:01;;;;;;;8.60;5.90;;;;;;;-0.09;79.77;100812.33;105334;1260;73563;-69
2023/02/13 07:35:30;;;;;;;10.90;7.00;;;;;;;-0.07;79.78;100797.09;105308;1256;68719;-68
2023/02/13 07:37:59;;;;;;;10.50;6.20;;;;;;;-0.04;80.02;100798.50;105205;1257;73237;-67
2023/02/13 07:40:29;;;;;;;11.00;6.60;;;;;;;0.02;79.91;100795.32;104412;1262;1003028;-68
2023/02/13 07:42:59;;;;;;;9.60;7.40;;;;;;;0.07;79.77;100799.26;105323;1257;60433;-67
2023/02/13 07:45:28;;;;;;;7.90;6.80;;;;;;;0.12;79.87;100801.73;105127;1258;73955;-68
2023/02/13 07:47:57;;;;;;;9.60;7.10;;;;;;;0.17;79.64;100797.29;105410;1262;66739;-69
2023/02/13 07:50:25;;;;;;;13.80;8.20;;;;;;;0.22;79.29;100803.72;105349;1258;71962;-69
2023/02/13 07:52:55;;;;;;;12.50;7.80;;;;;;;0.22;79.12;100810.02;105357;1261;60478;-68
2023/02/13 07:55:25;;;;;;;10.60;8.70;;;;;;;0.24;79.04;100800.17;105361;1257;60182;-68
2023/02/13 07:57:53;;;;;;;13.50;8.80;;;;;;;0.26;79.01;100799.41;105124;1260;73631;-70
2023/02/13 08:00:22;;;;;;;8.30;7.40;;;;;;;0.29;78.81;100807.92;105251;1257;69141;-69
2023/02/13 08:02:50;;;;;;;15.40;8.50;;;;;;;0.31;78.60;100795.90;105165;1259;72259;-70
2023/02/13 08:05:18;;;;;;;11.40;7.20;;;;;;;0.34;78.74;100780.19;105202;1262;59570;-69
2023/02/13 08:07:47;;;;;;;15.70;9.80;;;;;;;0.40;78.58;100773.23;105365;1259;60593;-67
2023/02/13 08:13:04;;;;;;;11.20;7.20;;;;;;;0.52;78.32;100778.56;105342;1259;67888;-69
2023/02/13 08:15:33;;;;;;;13.90;8.80;;;;;;;0.54;77.84;100779.02;104578;1259;1003107;-68
2023/02/13 08:18:01;;;;;;;11.50;7.80;;;;;;;0.57;77.91;100783.84;105378;1262;59763;-68
2023/02/13 08:20:30;;;;;;;10.40;7.90;;;;;;;0.59;77.75;100788.15;105231;1257;61373;-68
2023/02/13 08:23:05;;;;;;;10.10;8.30;;;;;;;0.62;77.77;100788.95;105822;1257;73525;-67
2023/02/13 08:25:37;;;;;;;13.10;9.20;;;;;;;0.64;77.61;100786.80;105745;1262;69427;-71
2023/02/13 08:28:05;;;;;;;15.10;9.00;;;;;;;0.68;77.64;100776.52;105764;1258;71349;-68
2023/02/13 08:30:34;;;;;;;12.80;8.20;;;;;;;0.73;77.44;100776.87;105095;1262;61560;-69
2023/02/13 08:33:04;;;;;;;10.90;8.20;;;;;;;0.78;77.17;100780.38;105029;1257;60661;-69
2023/02/13 08:35:32;;;;;;;13.10;8.50;;;;;;;0.82;76.85;100790.51;105217;1262;73727;-69
2023/02/13 08:38:03;;;;;;;13.80;8.50;;;;;;;0.85;76.76;100783.37;105079;1259;67780;-69
2023/02/13 08:40:32;;;;;;;13.10;8.80;;;;;;;0.85;76.89;100779.80;105205;1257;73910;-67
2023/02/13 08:43:01;;;;;;;10.60;9.30;;;;;;;0.86;76.95;100780.99;105368;1262;59769;-66
2023/02/13 08:45:29;;;;;;;8.80;7.70;;;;;;;0.86;76.84;100777.73;105298;1258;61198;-67
2023/02/13 08:47:58;;;;;;;12.10;8.30;;;;;;;0.88;76.95;100774.23;105201;1261;74750;-67
2023/02/13 08:50:26;;;;;;;15.20;9.90;;;;;;;0.91;77.00;100771.59;105024;1262;70457;-67
2023/02/13 08:52:54;;;;;;;17.10;9.10;;;;;;;0.96;77.16;100771.84;105233;1262;73311;-68
2023/02/13 08:55:23;;;;;;;12.00;8.70;;;;;;;1.01;76.97;100763.61;105309;1257;60017;-69
2023/02/13 08:57:53;;;;;;;13.10;9.90;;;;;;;1.05;76.73;100760.05;105325;1258;60966;-68
2023/02/13 09:00:21;;;;;;;19.50;11.50;;;;;;;1.05;76.63;100771.41;105466;1258;72152;-68
2023/02/13 09:02:49;;;;;;;13.50;9.50;;;;;;;1.03;76.63;100760.30;105282;1257;67674;-68
2023/02/13 09:05:18;;;;;;;15.70;9.30;;;;;;;0.99;76.78;100767.02;105070;1258;73544;-68
2023/02/13 09:07:47;;;;;;;12.40;10.10;;;;;;;0.94;77.24;100789.48;105295;1260;59871;-67
2023/02/13 09:10:16;;;;;;;11.90;9.70;;;;;;;0.87;77.68;100772.58;105336;1258;61724;-69
2023/02/13 09:12:51;;;;;;;11.70;9.70;;;;;;;0.81;78.20;100778.16;102651;1260;1004186;-67
2023/02/13 09:15:20;;;;;;;13.60;9.50;;;;;;;0.76;78.67;100773.17;105318;1260;66523;-67
2023/02/13 09:17:48;;;;;;;11.80;8.30;;;;;;;0.76;78.90;100758.31;104993;1258;74566;-68
2023/02/13 09:20:17;;;;;;;11.50;8.60;;;;;;;0.81;79.26;100755.55;105297;1258;59586;-68
2023/02/13 09:22:46;;;;;;;16.90;10.90;;;;;;;0.84;79.28;100754.44;105078;1258;61721;-68
2023/02/13 09:25:19;;;;;;;12.00;10.00;;;;;;;0.85;79.79;100758.23;105115;1259;72693;-65
2023/02/13 09:27:49;;;;;;;20.10;12.00;;;;;;;0.82;80.04;100755.70;105007;1262;69403;-67
2023/02/13 09:30:22;;;;;;;16.90;10.70;;;;;;;0.77;80.90;100738.67;104932;1262;73092;-69
2023/02/13 09:32:51;;;;;;;13.70;9.50;;;;;;;0.72;81.42;100743.08;105041;1258;63070;-66
2023/02/13 09:35:20;;;;;;;11.60;8.60;;;;;;;0.69;81.79;100722.91;105247;1257;60837;-67
2023/02/13 09:37:48;;;;;;;15.10;11.00;;;;;;;0.69;82.40;100725.21;105084;1258;73857;-67
2023/02/13 09:40:36;;;;;;;18.20;11.40;;;;;;;0.69;82.76;100716.19;105172;1258;67547;-67
2023/02/13 09:43:12;;;;;;;15.60;10.10;;;;;;;0.70;83.18;100719.23;105237;1259;73324;-67
2023/02/13 09:45:42;;;;;;;13.50;9.80;;;;;;;0.70;83.55;100706.27;105249;1257;59657;-68
2023/02/13 09:48:18;;;;;;;13.10;10.40;;;;;;;0.70;83.78;100694.19;105293;1258;60501;-67
2023/02/13 09:50:46;;;;;;;14.40;10.20;;;;;;;0.71;84.43;100691.62;105005;1258;72445;-67
2023/02/13 09:53:19;;;;;;;16.10;11.10;;;;;;;0.74;84.63;100688.14;105593;1254;68283;-69
2023/02/13 09:56:08;;;;;;;12.00;9.60;;;;;;;0.78;84.90;100682.98;105518;1256;72434;-68
2023/02/13 09:58:47;;;;;;;13.70;9.60;;;;;;;0.85;84.94;100682.73;105372;1253;60110;-67
2023/02/13 10:01:20;;;;;;;14.20;9.30;;;;;;;0.92;84.97;100687.78;105431;1253;60781;-68
2023/02/13 10:05:14;;;;;;;12.00;10.00;;;;;;;0.98;85.02;100693.88;105829;1253;73431;-70
2023/02/13 10:07:59;;;;;;;18.20;10.40;;;;;;;1.02;85.27;100676.16;105182;1264;68963;-69
2023/02/13 10:10:28;;;;;;;13.00;9.30;;;;;;;1.04;85.53;100682.10;104951;1261;73428;-69
2023/02/13 10:13:15;;;;;;;15.90;10.30;;;;;;;1.07;85.52;100687.83;105486;1253;61114;-69
2023/02/13 10:15:53;;;;;;;16.80;11.70;;;;;;;1.08;85.56;100690.35;105447;1257;60466;-69
2023/02/13 10:18:33;;;;;;;19.70;12.60;;;;;;;1.09;85.98;100698.64;105514;1253;74953;-67
2023/02/13 10:21:01;;;;;;;12.80;10.20;;;;;;;1.11;86.21;100696.66;105450;1257;67689;-66
2023/02/13 10:23:44;;;;;;;14.90;11.00;;;;;;;1.11;86.15;100695.61;105260;1253;72311;-69
2023/02/13 10:26:13;;;;;;;;;;;;;;;1.12;86.31;100690.64;105390;1253;60228;-70
2023/02/13 10:28:44;;;;;;;14.20;10.80;;;;;;;1.13;86.76;100672.34;105510;1255;61789;-69
2023/02/13 10:31:16;;;;;;;12.90;11.20;;;;;;;1.15;86.99;100666.73;105725;1257;72333;-69
2023/02/13 10:33:50;;;;;;;14.50;10.40;;;;;;;1.20;87.10;100665.49;105426;1258;69770;-70
2023/02/13 10:36:24;;;;;;;15.00;12.60;;;;;;;1.25;87.47;100668.80;105687;1254;74007;-69
2023/02/13 10:38:59;;;;;;;12.30;9.90;;;;;;;1.29;87.35;100667.00;105541;1257;59967;-68
2023/02/13 10:41:41;;;;;;;13.50;11.40;;;;;;;1.30;87.67;100667.40;105849;1253;62594;-69
2023/02/13 10:44:38;;;;;;;14.70;10.40;;;;;;;1.31;87.91;100651.97;105618;1257;73070;-69
2023/02/13 10:47:34;;;;;;;15.70;11.20;;;;;;;1.32;88.04;100656.61;105514;1253;67538;-68
2023/02/13 10:50:12;;;;;;;14.00;10.70;;;;;;;1.36;88.22;100668.95;105623;1254;72626;-67
2023/02/13 10:53:04;;;;;;;13.50;10.10;;;;;;;1.39;88.55;100661.21;105325;1258;59625;-68
2023/02/13 10:55:57;;;;;;;14.80;10.90;;;;;;;1.41;88.61;100657.59;105329;1253;61145;-70
2023/02/13 10:58:46;;;;;;;16.80;12.20;;;;;;;1.45;88.57;100653.98;105412;1257;72829;-72
2023/02/13 11:01:31;;;;;;;19.00;12.30;;;;;;;1.47;89.10;100667.53;105339;1253;68210;-69
2023/02/13 11:04:09;;;;;;;19.10;12.20;;;;;;;1.48;89.48;100670.05;105522;1259;72803;-69
2023/02/13 11:06:41;;;;;;;13.40;10.80;;;;;;;1.50;89.82;100667.75;105447;1253;60453;-69
2023/02/13 11:09:12;;;;;;;14.10;10.60;;;;;;;1.53;90.17;100656.92;105522;1253;60504;-70
2023/02/13 11:11:41;;;;;;;14.70;10.30;;;;;;;1.57;90.13;100649.05;106031;1258;74422;-68
2023/02/13 11:14:12;;;;;;;16.80;10.40;;;;;;;1.63;90.51;100654.26;105377;1253;68855;-68
2023/02/13 11:16:48;;;;;;;15.70;10.80;;;;;;;1.68;90.09;100650.84;105740;1257;72917;-68
2023/02/13 11:19:18;;;;;;;20.40;12.50;;;;;;;1.73;90.31;100655.09;105949;1257;60547;-69
2023/02/13 11:21:48;;;;;;;15.30;11.90;;;;;;;1.75;90.38;100659.14;105924;1253;60970;-69
2023/02/13 11:24:20;;;;;;;16.80;10.90;;;;;;;1.77;90.36;100664.17;105531;1253;72640;-70
2023/02/13 11:26:54;;;;;;;17.90;13.20;;;;;;;1.79;90.70;100652.64;105497;1253;67335;-69
2023/02/13 11:29:29;;;;;;;13.40;12.00;;;;;;;1.82;90.91;100649.30;105207;1253;74815;-69
2023/02/13 11:32:22;;;;;;;14.90;11.70;;;;;;;1.86;91.40;100647.40;105431;1253;60545;-74
2023/02/13 11:34:53;;;;;;;16.50;12.60;;;;;;;1.87;91.96;100653.50;105855;1253;60605;-70
2023/02/13 11:37:29;;;;;;;16.20;11.80;;;;;;;1.85;92.67;100639.85;105773;1259;74680;-72
2023/02/13 11:39:59;;;;;;;14.60;11.80;;;;;;;1.81;93.09;100639.36;105797;1256;68904;-72
2023/02/13 11:42:33;;;;;;;12.40;10.80;;;;;;;1.78;93.57;100631.08;105657;1256;72568;-76
2023/02/13 11:45:05;;;;;;;16.60;11.50;;;;;;;1.75;94.03;100636.14;105757;1256;62045;-71
2023/02/13 11:47:36;;;;;;;17.70;12.70;;;;;;;1.75;94.28;100623.17;105193;1258;61688;-68
2023/02/13 11:50:18;;;;;;;13.60;11.30;;;;;;;1.79;94.82;100623.36;105809;1260;73353;-67
2023/02/13 11:53:16;;;;;;;13.30;11.30;;;;;;;1.84;94.78;100621.39;105287;1256;67594;-67
2023/02/13 11:56:06;;;;;;;14.10;10.60;;;;;;;1.88;94.97;100608.37;105327;1262;75277;-70
2023/02/13 11:58:34;;;;;;;12.20;9.40;;;;;;;1.89;94.93;100604.89;105151;1258;60995;-67
2023/02/13 12:01:21;;;;;;;15.40;11.80;;;;;;;1.88;95.15;100597.20;105292;1262;60464;-66
2023/02/13 12:04:01;;;;;;;14.90;11.20;;;;;;;1.90;95.29;100600.69;105053;1261;74404;-68
2023/02/13 12:06:30;;;;;;;17.10;12.10;;;;;;;1.94;95.19;100592.97;105254;1259;68945;-66
2023/02/13 12:08:58;;;;;;;18.30;14.00;;;;;;;1.98;95.20;100588.20;105182;1258;73425;-65
2023/02/13 12:11:41;;;;;;;13.60;10.50;;;;;;;2.02;95.13;100578.57;105388;1258;60477;-66
2023/02/13 12:14:12;;;;;;;16.80;10.70;;;;;;;2.07;95.04;100578.95;104344;1261;1003645;-71
2023/02/13 12:16:49;;;;;;;12.90;9.70;;;;;;;2.10;94.72;100579.12;105486;1259;74080;-73
2023/02/13 12:19:23;;;;;;;27.30;16.50;;;;;;;2.12;94.96;100573.58;105491;1259;69543;-70
2023/02/13 12:22:23;;;;;;;11.10;9.70;;;;;;;2.15;94.91;100569.16;105587;1258;72988;-68
2023/02/13 12:25:00;;;;;;;15.60;11.40;;;;;;;2.19;94.80;100574.23;105493;1257;61030;-74
2023/02/13 12:27:50;;;;;;;14.20;9.60;;;;;;;2.23;94.63;100576.42;105434;1259;62463;-72
2023/02/13 12:30:37;;;;;;;12.80;9.70;;;;;;;2.27;94.51;100563.43;105430;1261;75421;-73
2023/02/13 12:33:24;;;;;;;15.40;9.60;;;;;;;2.31;94.49;100555.38;105755;1259;69587;-75